Time,TemperatureF,DewpointF,PressureIn,WindDirection,WindDirectionDegrees,WindSpeedMPH,WindSpeedGustMPH,Humidity,HourlyPrecipIn,Conditions,Clouds,dailyrainin,SoftwareType,DateUTC
2013-10-23 00:02:00,55.1,50.7,29.59,WNW,295,0.0,0.0,85,0.00,,,0.00,Wunderground v.1.15,2013-10-23 04:02:00,
2013-10-23 00:04:00,55.0,50.6,29.59,WNW,295,0.0,0.0,85,0.00,,,0.00,Wunderground v.1.15,2013-10-23 04:04:00,
2013-10-23 00:06:00,55.0,50.6,29.59,WNW,295,0.0,0.0,85,0.00,,,0.00,Wunderground v.1.15,2013-10-23 04:06:00,
2013-10-23 00:08:00,55.0,50.6,29.59,WNW,295,0.0,0.0,85,0.00,,,0.00,Wunderground v.1.15,2013-10-23 04:08:00,
2013-10-23 00:12:00,54.9,50.5,29.59,WNW,295,0.0,0.0,85,0.00,,,0.00,Wunderground v.1.15,2013-10-23 04:12:00,
2013-10-23 00:18:00,54.7,50.3,29.59,WNW,295,0.0,0.0,85,0.00,,,0.00,Wunderground v.1.15,2013-10-23 04:18:00,
2013-10-23 00:24:00,54.5,50.1,29.59,WNW,295,0.0,0.0,85,0.00,,,0.00,Wunderground v.1.15,2013-10-23 04:24:00,
2013-10-23 00:30:00,54.4,50.0,29.59,WNW,295,0.0,0.0,85,0.00,,,0.00,Wunderground v.1.15,2013-10-23 04:30:00,
2013-10-23 00:36:00,54.3,49.9,29.59,WNW,295,0.0,0.0,85,0.00,,,0.00,Wunderground v.1.15,2013-10-23 04:36:00,
2013-10-23 00:42:00,54.2,49.8,29.58,WNW,295,0.0,0.0,85,0.00,,,0.00,Wunderground v.1.15,2013-10-23 04:42:00,
2013-10-23 00:48:00,54.1,49.7,29.58,WNW,295,0.0,0.0,85,0.00,,,0.00,Wunderground v.1.15,2013-10-23 04:48:00,
2013-10-23 08:54:00,57.8,52.7,29.50,WNW,287,0.0,0.0,83,0.00,,,0.00,Wunderground v.1.15,2013-10-23 12:54:00,
2013-10-23 09:00:00,57.8,52.7,29.51,SSW,205,0.0,0.0,83,0.00,,,0.00,Wunderground v.1.15,2013-10-23 13:00:00,
2013-10-23 09:06:00,57.6,52.5,29.51,SW,218,0.0,3.0,83,0.00,,,0.00,Wunderground v.1.15,2013-10-23 13:06:00,
2013-10-23 09:12:00,57.4,52.3,29.51,SSW,211,0.0,1.0,83,0.00,,,0.00,Wunderground v.1.15,2013-10-23 13:12:00,
2013-10-23 09:18:00,57.3,52.5,29.51,SW,222,0.0,1.0,84,0.00,,,0.00,Wunderground v.1.15,2013-10-23 13:18:00,
2013-10-23 09:24:00,57.2,52.4,29.51,South,189,0.0,0.0,84,0.00,,,0.00,Wunderground v.1.15,2013-10-23 13:24:00,
2013-10-23 09:30:00,57.2,52.4,29.51,South,186,0.0,0.0,84,0.00,,,0.00,Wunderground v.1.15,2013-10-23 13:30:00,
2013-10-23 09:36:00,57.3,52.5,29.51,South,186,0.0,1.0,84,0.00,,,0.00,Wunderground v.1.15,2013-10-23 13:36:00,
2013-10-23 09:42:00,57.3,52.5,29.51,South,186,0.0,0.0,84,0.00,,,0.00,Wunderground v.1.15,2013-10-23 13:42:00,
2013-10-23 09:48:00,57.4,52.6,29.51,South,185,0.0,0.0,84,0.00,,,0.00,Wunderground v.1.15,2013-10-23 13:48:00,
2013-10-23 09:54:00,57.5,53.0,29.51,SSW,210,0.0,0.0,85,0.00,,,0.00,Wunderground v.1.15,2013-10-23 13:54:00,
2013-10-23 10:00:00,57.7,53.5,29.51,South,173,0.0,0.0,86,0.00,,,0.00,Wunderground v.1.15,2013-10-23 14:00:00,
2013-10-23 10:06:00,57.8,54.0,29.51,West,267,0.0,0.0,87,0.00,,,0.00,Wunderground v.1.15,2013-10-23 14:06:00,
2013-10-23 10:12:00,58.0,54.2,29.51,West,267,0.0,0.0,87,0.00,,,0.00,Wunderground v.1.15,2013-10-23 14:12:00,
2013-10-23 10:18:00,58.1,54.2,29.51,NW,323,0.0,0.0,87,0.00,,,0.00,Wunderground v.1.15,2013-10-23 14:18:00,
2013-10-23 10:24:00,58.4,54.5,29.51,WSW,250,0.0,0.0,87,0.00,,,0.00,Wunderground v.1.15,2013-10-23 14:24:00,
2013-10-23 10:30:00,58.9,55.0,29.51,SW,226,0.0,0.0,87,0.00,,,0.00,Wunderground v.1.15,2013-10-23 14:30:00,
2013-10-23 10:36:00,59.4,55.5,29.51,SW,235,1.0,1.0,87,0.00,,,0.00,Wunderground v.1.15,2013-10-23 14:36:00,
2013-10-23 10:42:00,59.8,55.6,29.51,WNW,303,1.0,1.0,86,0.00,,,0.00,Wunderground v.1.15,2013-10-23 14:42:00,
2013-10-23 10:48:00,59.8,55.6,29.51,South,181,0.0,3.0,86,0.00,,,0.00,Wunderground v.1.15,2013-10-23 14:48:00,
2013-10-23 10:54:00,59.7,55.5,29.52,SW,217,0.0,0.0,86,0.00,,,0.00,Wunderground v.1.15,2013-10-23 14:54:00,
2013-10-23 11:00:00,59.8,55.6,29.51,North,4,0.0,0.0,86,0.00,,,0.00,Wunderground v.1.15,2013-10-23 15:00:00,
2013-10-23 11:06:00,59.9,55.4,29.51,SW,229,0.0,1.0,85,0.00,,,0.00,Wunderground v.1.15,2013-10-23 15:06:00,
2013-10-23 11:12:00,59.9,55.4,29.51,SSW,194,0.0,0.0,85,0.00,,,0.00,Wunderground v.1.15,2013-10-23 15:12:00,
2013-10-23 11:18:00,59.9,55.1,29.51,SW,215,0.0,2.0,84,0.00,,,0.00,Wunderground v.1.15,2013-10-23 15:18:00,
2013-10-23 11:24:00,60.1,55.2,29.50,West,280,0.0,1.0,84,0.00,,,0.00,Wunderground v.1.15,2013-10-23 15:24:00,
2013-10-23 11:30:00,60.2,55.3,29.51,SSW,201,0.0,0.0,84,0.00,,,0.00,Wunderground v.1.15,2013-10-23 15:30:00,
2013-10-23 11:36:00,60.5,55.6,29.51,SSW,201,0.0,0.0,84,0.00,,,0.00,Wunderground v.1.15,2013-10-23 15:36:00,
2013-10-23 11:42:00,60.7,55.2,29.51,SW,215,0.0,0.0,82,0.00,,,0.00,Wunderground v.1.15,2013-10-23 15:42:00,
2013-10-23 11:48:00,61.0,55.1,29.51,South,187,0.0,1.0,81,0.00,,,0.00,Wunderground v.1.15,2013-10-23 15:48:00,
2013-10-23 11:54:00,61.4,55.5,29.51,SW,231,1.0,1.0,81,0.00,,,0.00,Wunderground v.1.15,2013-10-23 15:54:00,
2013-10-23 12:00:00,61.9,55.0,29.51,SSW,197,0.0,1.0,78,0.00,,,0.00,Wunderground v.1.15,2013-10-23 16:00:00,
2013-10-23 12:06:00,61.7,54.8,29.50,NE,51,0.0,1.0,78,0.00,,,0.00,Wunderground v.1.15,2013-10-23 16:06:00,
2013-10-23 12:12:00,61.4,54.1,29.50,NE,56,0.0,1.0,77,0.00,,,0.00,Wunderground v.1.15,2013-10-23 16:12:00,
2013-10-23 12:18:00,61.2,53.2,29.50,SSE,153,0.0,2.0,75,0.00,,,0.00,Wunderground v.1.15,2013-10-23 16:18:00,
2013-10-23 12:24:00,61.0,53.0,29.50,NW,314,0.0,0.0,75,0.00,,,0.00,Wunderground v.1.15,2013-10-23 16:24:00,
2013-10-23 12:30:00,61.2,52.8,29.50,WSW,252,0.0,2.0,74,0.00,,,0.00,Wunderground v.1.15,2013-10-23 16:30:00,
2013-10-23 12:36:00,61.5,52.0,29.50,WSW,256,1.0,3.0,71,0.00,,,0.00,Wunderground v.1.15,2013-10-23 16:36:00,
2013-10-23 12:42:00,62.0,51.3,29.50,South,173,1.0,2.0,68,0.00,,,0.00,Wunderground v.1.15,2013-10-23 16:42:00,
2013-10-23 12:48:00,62.5,52.2,29.50,SW,214,1.0,2.0,69,0.00,,,0.00,Wunderground v.1.15,2013-10-23 16:48:00,
2013-10-23 12:54:00,62.9,51.4,29.49,SSW,196,1.0,2.0,66,0.00,,,0.00,Wunderground v.1.15,2013-10-23 16:54:00,
2013-10-23 13:00:00,62.8,51.7,29.49,SW,225,1.0,1.0,67,0.00,,,0.00,Wunderground v.1.15,2013-10-23 17:00:00,
2013-10-23 13:06:00,62.6,50.7,29.49,SE,134,1.0,3.0,65,0.00,,,0.00,Wunderground v.1.15,2013-10-23 17:06:00,
2013-10-23 13:12:00,62.7,49.1,29.49,NNE,12,1.0,2.0,61,0.00,,,0.00,Wunderground v.1.15,2013-10-23 17:12:00,
2013-10-23 13:18:00,62.9,47.0,29.49,West,266,2.0,4.0,56,0.00,,,0.00,Wunderground v.1.15,2013-10-23 17:18:00,
2013-10-23 13:24:00,62.8,45.9,29.49,NNE,20,2.0,3.0,54,0.00,,,0.00,Wunderground v.1.15,2013-10-23 17:24:00,
2013-10-23 13:30:00,62.7,45.8,29.49,WNW,301,2.0,4.0,54,0.00,,,0.00,Wunderground v.1.15,2013-10-23 17:30:00,
2013-10-23 13:36:00,62.7,47.2,29.49,NW,307,2.0,4.0,57,0.00,,,0.00,Wunderground v.1.15,2013-10-23 17:36:00,
2013-10-23 13:42:00,63.4,47.4,29.49,SW,236,2.0,5.0,56,0.00,,,0.00,Wunderground v.1.15,2013-10-23 17:42:00,
2013-10-23 13:48:00,63.9,46.9,29.49,SE,141,1.0,5.0,54,0.00,,,0.00,Wunderground v.1.15,2013-10-23 17:48:00,
2013-10-23 13:54:00,63.8,46.3,29.49,NNE,32,1.0,5.0,53,0.00,,,0.00,Wunderground v.1.15,2013-10-23 17:54:00,
2013-10-23 14:00:00,63.9,47.4,29.48,NE,34,1.0,1.0,55,0.00,,,0.00,Wunderground v.1.15,2013-10-23 18:00:00,
2013-10-23 14:06:00,64.4,49.8,29.48,SW,220,1.0,2.0,59,0.00,,,0.00,Wunderground v.1.15,2013-10-23 18:06:00,
2013-10-23 14:12:00,64.8,46.8,29.48,NW,326,2.0,2.0,52,0.00,,,0.00,Wunderground v.1.15,2013-10-23 18:12:00,
2013-10-23 14:18:00,65.0,47.4,29.48,SW,215,1.0,2.0,53,0.00,,,0.00,Wunderground v.1.15,2013-10-23 18:18:00,
2013-10-23 14:24:00,64.9,47.9,29.48,NNW,329,1.0,2.0,54,0.00,,,0.00,Wunderground v.1.15,2013-10-23 18:24:00,
2013-10-23 14:30:00,64.6,45.5,29.48,SW,224,2.0,3.0,50,0.00,,,0.00,Wunderground v.1.15,2013-10-23 18:30:00,
2013-10-23 14:36:00,64.9,45.8,29.48,West,268,2.0,6.0,50,0.00,,,0.00,Wunderground v.1.15,2013-10-23 18:36:00,
2013-10-23 14:42:00,65.3,47.7,29.49,SSE,148,1.0,1.0,53,0.00,,,0.00,Wunderground v.1.15,2013-10-23 18:42:00,
2013-10-23 14:48:00,65.2,47.1,29.49,WNW,290,1.0,1.0,52,0.00,,,0.00,Wunderground v.1.15,2013-10-23 18:48:00,
2013-10-23 14:54:00,64.8,45.7,29.49,SSW,205,1.0,5.0,50,0.00,,,0.00,Wunderground v.1.15,2013-10-23 18:54:00,
2013-10-23 15:00:00,64.6,46.6,29.49,SSW,204,1.0,1.0,52,0.00,,,0.00,Wunderground v.1.15,2013-10-23 19:00:00,
2013-10-23 15:06:00,64.5,44.4,29.49,SSE,159,1.0,1.0,48,0.00,,,0.00,Wunderground v.1.15,2013-10-23 19:06:00,
2013-10-23 15:12:00,64.7,43.4,29.50,SW,232,3.0,6.0,46,0.00,,,0.00,Wunderground v.1.15,2013-10-23 19:12:00,
2013-10-23 15:18:00,65.0,44.3,29.50,East,98,3.0,6.0,47,0.00,,,0.00,Wunderground v.1.15,2013-10-23 19:18:00,
2013-10-23 15:24:00,65.2,45.0,29.50,NW,323,2.0,3.0,48,0.00,,,0.00,Wunderground v.1.15,2013-10-23 19:24:00,
2013-10-23 15:30:00,65.3,44.5,29.50,SW,226,2.0,2.0,47,0.00,,,0.00,Wunderground v.1.15,2013-10-23 19:30:00,
2013-10-23 15:36:00,64.9,43.6,29.50,SSW,210,2.0,3.0,46,0.00,,,0.00,Wunderground v.1.15,2013-10-23 19:36:00,
2013-10-23 15:42:00,65.1,43.8,29.51,ESE,109,2.0,2.0,46,0.00,,,0.00,Wunderground v.1.15,2013-10-23 19:42:00,
2013-10-23 15:48:00,65.0,43.1,29.51,NNW,345,2.0,2.0,45,0.00,,,0.00,Wunderground v.1.15,2013-10-23 19:48:00,
2013-10-23 15:54:00,64.9,42.5,29.51,East,85,2.0,7.0,44,0.00,,,0.00,Wunderground v.1.15,2013-10-23 19:54:00,
2013-10-23 16:00:00,64.7,41.7,29.52,NW,322,2.0,2.0,43,0.00,,,0.00,Wunderground v.1.15,2013-10-23 20:00:00,
2013-10-23 16:06:00,64.6,39.7,29.52,WSW,253,2.0,2.0,40,0.00,,,0.00,Wunderground v.1.15,2013-10-23 20:06:00,
2013-10-23 16:12:00,64.4,40.2,29.52,NNW,330,2.0,7.0,41,0.00,,,0.00,Wunderground v.1.15,2013-10-23 20:12:00,
2013-10-23 16:18:00,64.2,41.2,29.52,SSW,205,3.0,7.0,43,0.00,,,0.00,Wunderground v.1.15,2013-10-23 20:18:00,
2013-10-23 16:24:00,64.0,41.6,29.53,SSE,168,2.0,3.0,44,0.00,,,0.00,Wunderground v.1.15,2013-10-23 20:24:00,
2013-10-23 16:30:00,63.7,40.8,29.53,NNE,23,2.0,2.0,43,0.00,,,0.00,Wunderground v.1.15,2013-10-23 20:30:00,
2013-10-23 16:36:00,63.7,40.2,29.53,SW,236,2.0,6.0,42,0.00,,,0.00,Wunderground v.1.15,2013-10-23 20:36:00,
2013-10-23 16:42:00,63.4,39.9,29.53,West,266,2.0,7.0,42,0.00,,,0.00,Wunderground v.1.15,2013-10-23 20:42:00,
2013-10-23 16:48:00,63.2,40.9,29.53,South,187,2.0,7.0,44,0.00,,,0.00,Wunderground v.1.15,2013-10-23 20:48:00,
2013-10-23 16:54:00,63.1,40.2,29.54,SW,231,2.0,2.0,43,0.00,,,0.00,Wunderground v.1.15,2013-10-23 20:54:00,
2013-10-23 17:00:00,63.1,42.0,29.54,North,360,1.0,1.0,46,0.00,,,0.00,Wunderground v.1.15,2013-10-23 21:00:00,
2013-10-23 17:06:00,62.8,41.1,29.55,SW,218,2.0,3.0,45,0.00,,,0.00,Wunderground v.1.15,2013-10-23 21:06:00,
2013-10-23 17:12:00,62.6,40.4,29.55,WSW,246,2.0,2.0,44,0.00,,,0.00,Wunderground v.1.15,2013-10-23 21:12:00,
2013-10-23 17:18:00,62.5,41.4,29.55,NNE,20,2.0,4.0,46,0.00,,,0.00,Wunderground v.1.15,2013-10-23 21:18:00,
2013-10-23 17:24:00,62.3,41.2,29.55,SW,226,1.0,2.0,46,0.00,,,0.00,Wunderground v.1.15,2013-10-23 21:24:00,
2013-10-23 17:30:00,62.2,41.2,29.56,North,357,1.0,3.0,46,0.00,,,0.00,Wunderground v.1.15,2013-10-23 21:30:00,
2013-10-23 17:36:00,62.1,39.9,29.56,WSW,240,2.0,5.0,44,0.00,,,0.00,Wunderground v.1.15,2013-10-23 21:36:00,
2013-10-23 17:42:00,61.8,40.2,29.56,SSE,159,2.0,5.0,45,0.00,,,0.00,Wunderground v.1.15,2013-10-23 21:42:00,
2013-10-23 17:48:00,61.4,39.3,29.57,East,91,2.0,5.0,44,0.00,,,0.00,Wunderground v.1.15,2013-10-23 21:48:00,
2013-10-23 17:54:00,61.0,40.1,29.57,SSE,148,1.0,2.0,46,0.00,,,0.00,Wunderground v.1.15,2013-10-23 21:54:00,
2013-10-23 18:00:00,60.7,39.8,29.58,SW,219,1.0,1.0,46,0.00,,,0.00,Wunderground v.1.15,2013-10-23 22:00:00,
2013-10-23 18:06:00,60.3,38.9,29.58,West,263,1.0,3.0,45,0.00,,,0.00,Wunderground v.1.15,2013-10-23 22:06:00,
2013-10-23 18:12:00,60.0,38.6,29.59,NE,40,1.0,2.0,45,0.00,,,0.00,Wunderground v.1.15,2013-10-23 22:12:00,
2013-10-23 18:18:00,59.6,39.3,29.59,West,269,2.0,2.0,47,0.00,,,0.00,Wunderground v.1.15,2013-10-23 22:18:00,
2013-10-23 18:24:00,59.3,39.1,29.60,NW,310,1.0,3.0,47,0.00,,,0.00,Wunderground v.1.15,2013-10-23 22:24:00,
2013-10-23 18:30:00,58.9,39.2,29.60,SW,226,1.0,1.0,48,0.00,,,0.00,Wunderground v.1.15,2013-10-23 22:30:00,
2013-10-23 18:36:00,58.5,39.4,29.61,SW,217,1.0,1.0,49,0.00,,,0.00,Wunderground v.1.15,2013-10-23 22:36:00,
2013-10-23 18:42:00,58.0,38.9,29.61,South,186,1.0,1.0,49,0.00,,,0.00,Wunderground v.1.15,2013-10-23 22:42:00,
2013-10-23 18:48:00,57.7,38.1,29.61,SW,226,1.0,2.0,48,0.00,,,0.00,Wunderground v.1.15,2013-10-23 22:48:00,
2013-10-23 18:54:00,57.5,38.5,29.62,SE,124,1.0,2.0,49,0.00,,,0.00,Wunderground v.1.15,2013-10-23 22:54:00,
2013-10-23 19:00:00,57.0,38.5,29.63,WSW,239,1.0,1.0,50,0.00,,,0.00,Wunderground v.1.15,2013-10-23 23:00:00,
2013-10-23 19:06:00,56.6,38.7,29.63,SW,236,1.0,1.0,51,0.00,,,0.00,Wunderground v.1.15,2013-10-23 23:06:00,
2013-10-23 19:12:00,56.1,37.7,29.64,East,99,1.0,2.0,50,0.00,,,0.00,Wunderground v.1.15,2013-10-23 23:12:00,
2013-10-23 19:18:00,55.9,37.0,29.64,ENE,65,1.0,2.0,49,0.00,,,0.00,Wunderground v.1.15,2013-10-23 23:18:00,
2013-10-23 19:24:00,55.8,37.4,29.65,South,191,1.0,2.0,50,0.00,,,0.00,Wunderground v.1.15,2013-10-23 23:24:00,
2013-10-23 19:30:00,55.5,37.1,29.65,NE,43,1.0,1.0,50,0.00,,,0.00,Wunderground v.1.15,2013-10-23 23:30:00,
2013-10-23 19:36:00,55.3,36.5,29.66,WNW,283,1.0,2.0,49,0.00,,,0.00,Wunderground v.1.15,2013-10-23 23:36:00,
2013-10-23 19:42:00,55.0,36.7,29.66,SE,146,1.0,1.0,50,0.00,,,0.00,Wunderground v.1.15,2013-10-23 23:42:00,
2013-10-23 19:48:00,54.7,35.9,29.67,SW,214,1.0,2.0,49,0.00,,,0.00,Wunderground v.1.15,2013-10-23 23:48:00,
2013-10-23 19:54:00,54.4,35.1,29.67,SE,132,1.0,1.0,48,0.00,,,0.00,Wunderground v.1.15,2013-10-23 23:54:00,
2013-10-23 20:00:00,54.3,35.0,29.68,WNW,293,1.0,6.0,48,0.00,,,0.00,Wunderground v.1.15,2013-10-24 00:00:00,
2013-10-23 20:06:00,54.1,34.8,29.68,SW,228,2.0,6.0,48,0.00,,,0.00,Wunderground v.1.15,2013-10-24 00:06:00,
2013-10-23 20:12:00,53.8,35.1,29.69,SSW,203,1.0,2.0,49,0.00,,,0.00,Wunderground v.1.15,2013-10-24 00:12:00,
2013-10-23 20:18:00,53.5,35.3,29.69,SW,219,1.0,3.0,50,0.00,,,0.00,Wunderground v.1.15,2013-10-24 00:18:00,
2013-10-23 20:24:00,53.1,35.4,29.69,WSW,258,1.0,1.0,51,0.00,,,0.00,Wunderground v.1.15,2013-10-24 00:24:00,
2013-10-23 20:30:00,52.7,35.6,29.70,NNW,335,0.0,0.0,52,0.00,,,0.00,Wunderground v.1.15,2013-10-24 00:30:00,
2013-10-23 20:36:00,52.3,35.2,29.71,NNW,335,0.0,0.0,52,0.00,,,0.00,Wunderground v.1.15,2013-10-24 00:36:00,
2013-10-23 20:42:00,51.9,36.2,29.71,NNW,334,0.0,0.0,55,0.00,,,0.00,Wunderground v.1.15,2013-10-24 00:42:00,
2013-10-23 20:48:00,51.5,35.4,29.71,NNW,334,0.0,0.0,54,0.00,,,0.00,Wunderground v.1.15,2013-10-24 00:48:00,
2013-10-23 20:54:00,51.1,36.4,29.71,SSW,208,0.0,0.0,57,0.00,,,0.00,Wunderground v.1.15,2013-10-24 00:54:00,
2013-10-23 21:00:00,50.8,35.7,29.72,WSW,238,1.0,4.0,56,0.00,,,0.00,Wunderground v.1.15,2013-10-24 01:00:00,
2013-10-23 21:06:00,50.7,36.0,29.72,SSW,207,1.0,4.0,57,0.00,,,0.00,Wunderground v.1.15,2013-10-24 01:06:00,
2013-10-23 21:12:00,50.6,36.4,29.72,SW,215,0.0,1.0,58,0.00,,,0.00,Wunderground v.1.15,2013-10-24 01:12:00,
2013-10-23 21:18:00,50.3,36.5,29.72,SSW,211,0.0,1.0,59,0.00,,,0.00,Wunderground v.1.15,2013-10-24 01:18:00,
2013-10-23 21:24:00,50.1,35.9,29.73,SW,221,0.0,0.0,58,0.00,,,0.00,Wunderground v.1.15,2013-10-24 01:24:00,
2013-10-23 21:30:00,49.9,36.1,29.73,NW,305,0.0,0.0,59,0.00,,,0.00,Wunderground v.1.15,2013-10-24 01:30:00,
2013-10-23 21:36:00,49.6,36.7,29.73,WNW,300,0.0,1.0,61,0.00,,,0.00,Wunderground v.1.15,2013-10-24 01:36:00,
2013-10-23 21:42:00,49.4,36.5,29.74,WNW,299,0.0,0.0,61,0.00,,,0.00,Wunderground v.1.15,2013-10-24 01:42:00,
2013-10-23 21:48:00,49.4,36.1,29.74,SW,225,0.0,1.0,60,0.00,,,0.00,Wunderground v.1.15,2013-10-24 01:48:00,
2013-10-23 21:54:00,49.2,36.3,29.74,SSW,210,0.0,3.0,61,0.00,,,0.00,Wunderground v.1.15,2013-10-24 01:54:00,
2013-10-23 22:00:00,49.2,35.9,29.74,SW,215,0.0,1.0,60,0.00,,,0.00,Wunderground v.1.15,2013-10-24 02:00:00,
2013-10-23 22:06:00,49.1,36.2,29.75,NNE,15,0.0,1.0,61,0.00,,,0.00,Wunderground v.1.15,2013-10-24 02:06:00,
2013-10-23 22:12:00,48.9,36.4,29.75,SSW,212,0.0,0.0,62,0.00,,,0.00,Wunderground v.1.15,2013-10-24 02:12:00,
2013-10-23 22:18:00,48.8,36.4,29.76,SW,217,0.0,0.0,62,0.00,,,0.00,Wunderground v.1.15,2013-10-24 02:18:00,
2013-10-23 22:24:00,48.7,36.3,29.76,WNW,290,0.0,1.0,62,0.00,,,0.00,Wunderground v.1.15,2013-10-24 02:24:00,
2013-10-23 22:30:00,48.6,36.2,29.76,WSW,257,0.0,0.0,62,0.00,,,0.00,Wunderground v.1.15,2013-10-24 02:30:00,
2013-10-23 22:36:00,48.4,36.4,29.77,WSW,257,0.0,0.0,63,0.00,,,0.00,Wunderground v.1.15,2013-10-24 02:36:00,
2013-10-23 22:42:00,48.1,36.5,29.77,SW,219,0.0,1.0,64,0.00,,,0.00,Wunderground v.1.15,2013-10-24 02:42:00,
2013-10-23 22:48:00,47.8,36.6,29.77,SW,218,0.0,1.0,65,0.00,,,0.00,Wunderground v.1.15,2013-10-24 02:48:00,
2013-10-23 22:54:00,47.6,36.8,29.77,SSE,156,0.0,0.0,66,0.00,,,0.00,Wunderground v.1.15,2013-10-24 02:54:00,
2013-10-23 23:00:00,47.2,36.8,29.78,SSE,156,0.0,0.0,67,0.00,,,0.00,Wunderground v.1.15,2013-10-24 03:00:00,
2013-10-23 23:06:00,47.0,36.6,29.78,SSW,199,0.0,0.0,67,0.00,,,0.00,Wunderground v.1.15,2013-10-24 03:06:00,
2013-10-23 23:12:00,46.8,36.8,29.78,SSW,204,0.0,0.0,68,0.00,,,0.00,Wunderground v.1.15,2013-10-24 03:12:00,
2013-10-23 23:18:00,46.7,36.7,29.78,SSW,204,0.0,0.0,68,0.00,,,0.00,Wunderground v.1.15,2013-10-24 03:18:00,
2013-10-23 23:24:00,46.4,36.8,29.78,SSW,204,0.0,0.0,69,0.00,,,0.00,Wunderground v.1.15,2013-10-24 03:24:00,
2013-10-23 23:30:00,46.2,37.0,29.78,SSW,204,0.0,0.0,70,0.00,,,0.00,Wunderground v.1.15,2013-10-24 03:30:00,
2013-10-23 23:36:00,46.0,36.8,29.79,SSW,204,0.0,0.0,70,0.00,,,0.00,Wunderground v.1.15,2013-10-24 03:36:00,
2013-10-23 23:42:00,45.7,36.8,29.79,SSW,203,0.0,0.0,71,0.00,,,0.00,Wunderground v.1.15,2013-10-24 03:42:00,
2013-10-23 23:48:00,45.2,37.1,29.79,SSW,203,0.0,0.0,73,0.00,,,0.00,Wunderground v.1.15,2013-10-24 03:48:00,
2013-10-23 23:54:00,44.8,37.0,29.80,SSW,203,0.0,0.0,74,0.00,,,0.00,Wunderground v.1.15,2013-10-24 03:54:00,